Terminal Aerodrome Forecast
Issued by NWS

Home | Current Version | Previous Version | Graphics & Text | Print | Product List | Glossary On
Versions: 1 2 3 4 5 6 7 8 9 10 11 12
000
FTUS45 KGGW 171128 AAA
TAFSDY
TAF AMD
KSDY 171128Z 1711/1806 21006KT 1/2SM FG OVC002
     FM171400 20006KT 5SM BR FEW009
     FM171600 19008KT P6SM FEW120
     FM180100 18004KT P6SM SCT180=

USA.gov is the U.S. government's official web portal to all federal, state and local government web resources and services.